sensor_id;sensor_type;location;lat;lon;timestamp;temperature;humidity
44886;DHT22;36669;51.428;21.162;2023-04-29T00:01:15;6.90;99.90
44886;DHT22;36669;51.428;21.162;2023-04-29T00:03:42;6.90;99.90
44886;DHT22;36669;51.428;21.162;2023-04-29T00:06:09;6.80;99.90
44886;DHT22;36669;51.428;21.162;2023-04-29T00:08:40;6.80;99.90
44886;DHT22;36669;51.428;21.162;2023-04-29T00:11:07;6.80;99.90
44886;DHT22;36669;51.428;21.162;2023-04-29T00:13:35;6.80;99.90
44886;DHT22;36669;51.428;21.162;2023-04-29T00:16:02;6.80;99.90
44886;DHT22;36669;51.428;21.162;2023-04-29T00:18:29;6.80;99.90
44886;DHT22;36669;51.428;21.162;2023-04-29T00:20:55;6.80;99.90
44886;DHT22;36669;51.428;21.162;2023-04-29T00:23:22;6.70;99.90
44886;DHT22;36669;51.428;21.162;2023-04-29T00:25:49;6.70;99.90
44886;DHT22;36669;51.428;21.162;2023-04-29T00:28:16;6.70;99.90
44886;DHT22;36669;51.428;21.162;2023-04-29T00:30:42;6.70;99.90
44886;DHT22;36669;51.428;21.162;2023-04-29T00:33:09;6.70;99.90
44886;DHT22;36669;51.428;21.162;2023-04-29T00:35:36;6.70;99.90
44886;DHT22;36669;51.428;21.162;2023-04-29T00:38:01;6.70;99.90
44886;DHT22;36669;51.428;21.162;2023-04-29T00:40:28;6.70;99.90
44886;DHT22;36669;51.428;21.162;2023-04-29T00:42:53;6.60;99.90
44886;DHT22;36669;51.428;21.162;2023-04-29T00:45:20;6.60;99.90
44886;DHT22;36669;51.428;21.162;2023-04-29T00:47:47;6.60;99.90
44886;DHT22;36669;51.428;21.162;2023-04-29T00:50:14;6.60;99.90
44886;DHT22;36669;51.428;21.162;2023-04-29T00:52:41;6.60;99.90
44886;DHT22;36669;51.428;21.162;2023-04-29T00:55:07;6.60;99.90
44886;DHT22;36669;51.428;21.162;2023-04-29T00:57:34;6.60;99.90
44886;DHT22;36669;51.428;21.162;2023-04-29T01:00:01;6.60;99.90
44886;DHT22;36669;51.428;21.162;2023-04-29T01:02:28;6.70;99.90
44886;DHT22;36669;51.428;21.162;2023-04-29T01:04:57;6.70;99.90
44886;DHT22;36669;51.428;21.162;2023-04-29T01:07:30;6.70;99.90
44886;DHT22;36669;51.428;21.162;2023-04-29T01:10:03;6.70;99.90
44886;DHT22;36669;51.428;21.162;2023-04-29T01:12:44;6.70;99.90
44886;DHT22;36669;51.428;21.162;2023-04-29T01:18:14;6.70;99.90
44886;DHT22;36669;51.428;21.162;2023-04-29T01:20:43;6.70;99.90
44886;DHT22;36669;51.428;21.162;2023-04-29T01:23:11;6.70;99.90
44886;DHT22;36669;51.428;21.162;2023-04-29T01:25:37;6.70;99.90
44886;DHT22;36669;51.428;21.162;2023-04-29T01:30:55;6.70;99.90
44886;DHT22;36669;51.428;21.162;2023-04-29T01:44:02;6.70;99.90
44886;DHT22;36669;51.428;21.162;2023-04-29T01:46:28;6.60;99.90
44886;DHT22;36669;51.428;21.162;2023-04-29T01:48:56;6.60;99.90
44886;DHT22;36669;51.428;21.162;2023-04-29T01:51:22;6.60;99.90
44886;DHT22;36669;51.428;21.162;2023-04-29T01:53:49;6.50;99.90
44886;DHT22;36669;51.428;21.162;2023-04-29T01:56:15;6.50;99.90
44886;DHT22;36669;51.428;21.162;2023-04-29T01:58:41;6.50;99.90
44886;DHT22;36669;51.428;21.162;2023-04-29T02:01:07;6.50;99.90
44886;DHT22;36669;51.428;21.162;2023-04-29T02:03:36;6.50;99.90
44886;DHT22;36669;51.428;21.162;2023-04-29T02:06:03;6.60;99.90
44886;DHT22;36669;51.428;21.162;2023-04-29T02:08:33;6.50;99.90
44886;DHT22;36669;51.428;21.162;2023-04-29T02:10:59;6.50;99.90
44886;DHT22;36669;51.428;21.162;2023-04-29T02:13:26;6.50;99.90
44886;DHT22;36669;51.428;21.162;2023-04-29T02:15:53;6.60;99.90
44886;DHT22;36669;51.428;21.162;2023-04-29T02:18:20;6.60;99.90
44886;DHT22;36669;51.428;21.162;2023-04-29T02:20:47;6.60;99.90
44886;DHT22;36669;51.428;21.162;2023-04-29T02:23:16;6.60;99.90
44886;DHT22;36669;51.428;21.162;2023-04-29T02:25:42;6.60;99.90
44886;DHT22;36669;51.428;21.162;2023-04-29T02:28:08;6.60;99.90
44886;DHT22;36669;51.428;21.162;2023-04-29T02:30:35;6.70;99.90
44886;DHT22;36669;51.428;21.162;2023-04-29T02:33:02;6.70;99.90
44886;DHT22;36669;51.428;21.162;2023-04-29T02:35:28;6.70;99.90
44886;DHT22;36669;51.428;21.162;2023-04-29T02:37:56;6.70;99.90
44886;DHT22;36669;51.428;21.162;2023-04-29T02:40:22;6.70;99.90
44886;DHT22;36669;51.428;21.162;2023-04-29T02:42:51;6.70;99.90
44886;DHT22;36669;51.428;21.162;2023-04-29T02:45:18;6.60;99.90
44886;DHT22;36669;51.428;21.162;2023-04-29T02:47:45;6.60;99.90
44886;DHT22;36669;51.428;21.162;2023-04-29T02:50:11;6.60;99.90
44886;DHT22;36669;51.428;21.162;2023-04-29T02:52:38;6.60;99.90
44886;DHT22;36669;51.428;21.162;2023-04-29T02:55:08;6.60;99.90
44886;DHT22;36669;51.428;21.162;2023-04-29T02:57:35;6.60;99.90
44886;DHT22;36669;51.428;21.162;2023-04-29T03:00:05;6.60;99.90
44886;DHT22;36669;51.428;21.162;2023-04-29T03:02:32;6.60;99.90
44886;DHT22;36669;51.428;21.162;2023-04-29T03:05:00;6.60;99.90
44886;DHT22;36669;51.428;21.162;2023-04-29T03:07:27;6.50;99.90
44886;DHT22;36669;51.428;21.162;2023-04-29T03:09:55;6.50;99.90
44886;DHT22;36669;51.428;21.162;2023-04-29T03:12:22;6.50;99.90
44886;DHT22;36669;51.428;21.162;2023-04-29T03:14:52;6.60;99.90
44886;DHT22;36669;51.428;21.162;2023-04-29T03:17:18;6.50;99.90
44886;DHT22;36669;51.428;21.162;2023-04-29T03:19:44;6.50;99.90
44886;DHT22;36669;51.428;21.162;2023-04-29T03:22:11;6.60;99.90
44886;DHT22;36669;51.428;21.162;2023-04-29T03:24:36;6.60;99.90
44886;DHT22;36669;51.428;21.162;2023-04-29T03:27:04;6.60;99.90
44886;DHT22;36669;51.428;21.162;2023-04-29T03:29:30;6.50;99.90
44886;DHT22;36669;51.428;21.162;2023-04-29T03:31:57;6.50;99.90
44886;DHT22;36669;51.428;21.162;2023-04-29T03:34:24;6.50;99.90
44886;DHT22;36669;51.428;21.162;2023-04-29T03:36:51;6.60;99.90
44886;DHT22;36669;51.428;21.162;2023-04-29T03:39:17;6.60;99.90
44886;DHT22;36669;51.428;21.162;2023-04-29T03:41:44;6.60;99.90
44886;DHT22;36669;51.428;21.162;2023-04-29T03:44:12;6.60;99.90
44886;DHT22;36669;51.428;21.162;2023-04-29T03:46:39;6.60;99.90
44886;DHT22;36669;51.428;21.162;2023-04-29T03:49:05;6.60;99.90
44886;DHT22;36669;51.428;21.162;2023-04-29T03:51:35;6.60;99.90
44886;DHT22;36669;51.428;21.162;2023-04-29T03:54:00;6.60;99.90
44886;DHT22;36669;51.428;21.162;2023-04-29T03:56:27;6.60;99.90
44886;DHT22;36669;51.428;21.162;2023-04-29T03:58:53;6.70;99.90
44886;DHT22;36669;51.428;21.162;2023-04-29T04:01:19;6.60;99.90
44886;DHT22;36669;51.428;21.162;2023-04-29T04:03:46;6.60;99.90
44886;DHT22;36669;51.428;21.162;2023-04-29T04:06:12;6.60;99.90
44886;DHT22;36669;51.428;21.162;2023-04-29T04:08:38;6.60;99.90
44886;DHT22;36669;51.428;21.162;2023-04-29T04:11:07;6.60;99.90
44886;DHT22;36669;51.428;21.162;2023-04-29T04:13:35;6.60;99.90
44886;DHT22;36669;51.428;21.162;2023-04-29T04:16:03;6.60;99.90
44886;DHT22;36669;51.428;21.162;2023-04-29T04:18:30;6.60;99.90
44886;DHT22;36669;51.428;21.162;2023-04-29T04:20:55;6.70;99.90
44886;DHT22;36669;51.428;21.162;2023-04-29T04:23:22;6.60;99.90
44886;DHT22;36669;51.428;21.162;2023-04-29T04:25:49;6.60;99.90
44886;DHT22;36669;51.428;21.162;2023-04-29T04:28:26;6.70;99.90
44886;DHT22;36669;51.428;21.162;2023-04-29T04:30:53;6.70;99.90
44886;DHT22;36669;51.428;21.162;2023-04-29T04:33:20;6.70;99.90
44886;DHT22;36669;51.428;21.162;2023-04-29T04:35:48;6.80;99.90
44886;DHT22;36669;51.428;21.162;2023-04-29T04:38:14;6.80;99.90
44886;DHT22;36669;51.428;21.162;2023-04-29T04:40:41;6.80;99.90
44886;DHT22;36669;51.428;21.162;2023-04-29T04:43:08;6.90;99.90
44886;DHT22;36669;51.428;21.162;2023-04-29T04:45:34;7.00;99.90
44886;DHT22;36669;51.428;21.162;2023-04-29T04:48:01;7.00;99.90
44886;DHT22;36669;51.428;21.162;2023-04-29T04:50:28;7.10;99.90
44886;DHT22;36669;51.428;21.162;2023-04-29T04:52:56;7.20;99.90
44886;DHT22;36669;51.428;21.162;2023-04-29T04:55:22;7.30;99.90
44886;DHT22;36669;51.428;21.162;2023-04-29T04:57:49;7.40;99.90
44886;DHT22;36669;51.428;21.162;2023-04-29T05:00:16;7.40;99.90
44886;DHT22;36669;51.428;21.162;2023-04-29T05:02:43;7.50;99.90
44886;DHT22;36669;51.428;21.162;2023-04-29T05:05:10;7.50;99.90
44886;DHT22;36669;51.428;21.162;2023-04-29T05:07:37;7.50;99.90
44886;DHT22;36669;51.428;21.162;2023-04-29T05:10:05;7.60;99.90
44886;DHT22;36669;51.428;21.162;2023-04-29T05:12:32;7.70;99.90
44886;DHT22;36669;51.428;21.162;2023-04-29T05:15:01;7.80;99.90
44886;DHT22;36669;51.428;21.162;2023-04-29T05:17:27;7.80;99.90
44886;DHT22;36669;51.428;21.162;2023-04-29T05:19:54;7.90;99.90
44886;DHT22;36669;51.428;21.162;2023-04-29T05:22:21;8.00;99.90
44886;DHT22;36669;51.428;21.162;2023-04-29T05:24:48;8.10;99.90
44886;DHT22;36669;51.428;21.162;2023-04-29T05:27:15;8.20;99.90
44886;DHT22;36669;51.428;21.162;2023-04-29T05:29:40;8.20;99.90
44886;DHT22;36669;51.428;21.162;2023-04-29T05:32:08;8.20;99.90
44886;DHT22;36669;51.428;21.162;2023-04-29T05:34:34;8.40;99.90
44886;DHT22;36669;51.428;21.162;2023-04-29T05:37:01;8.40;99.90
44886;DHT22;36669;51.428;21.162;2023-04-29T05:39:26;8.50;99.90
44886;DHT22;36669;51.428;21.162;2023-04-29T05:41:54;8.60;99.90
44886;DHT22;36669;51.428;21.162;2023-04-29T05:44:20;8.70;99.90
44886;DHT22;36669;51.428;21.162;2023-04-29T05:46:48;8.80;99.90
44886;DHT22;36669;51.428;21.162;2023-04-29T05:49:17;8.90;99.90
44886;DHT22;36669;51.428;21.162;2023-04-29T05:51:43;9.10;99.90
44886;DHT22;36669;51.428;21.162;2023-04-29T05:54:10;9.20;99.90
44886;DHT22;36669;51.428;21.162;2023-04-29T05:56:36;9.30;99.90
44886;DHT22;36669;51.428;21.162;2023-04-29T05:59:03;9.40;99.90
44886;DHT22;36669;51.428;21.162;2023-04-29T06:01:30;9.50;99.90
44886;DHT22;36669;51.428;21.162;2023-04-29T06:03:57;9.60;99.90
44886;DHT22;36669;51.428;21.162;2023-04-29T06:06:25;9.70;99.90
44886;DHT22;36669;51.428;21.162;2023-04-29T06:08:51;9.80;99.90
44886;DHT22;36669;51.428;21.162;2023-04-29T06:11:19;9.80;99.90
44886;DHT22;36669;51.428;21.162;2023-04-29T06:13:44;9.90;99.90
44886;DHT22;36669;51.428;21.162;2023-04-29T06:16:11;10.00;99.90
44886;DHT22;36669;51.428;21.162;2023-04-29T06:18:38;10.00;99.90
44886;DHT22;36669;51.428;21.162;2023-04-29T06:21:05;10.10;99.90
44886;DHT22;36669;51.428;21.162;2023-04-29T06:23:31;10.30;99.90
44886;DHT22;36669;51.428;21.162;2023-04-29T06:25:58;10.40;99.90
44886;DHT22;36669;51.428;21.162;2023-04-29T06:28:25;10.40;99.90
44886;DHT22;36669;51.428;21.162;2023-04-29T06:30:52;10.30;99.90
44886;DHT22;36669;51.428;21.162;2023-04-29T06:33:19;10.30;99.90
44886;DHT22;36669;51.428;21.162;2023-04-29T06:35:46;10.40;99.90
44886;DHT22;36669;51.428;21.162;2023-04-29T06:38:12;10.40;99.90
44886;DHT22;36669;51.428;21.162;2023-04-29T06:40:40;10.40;99.90
44886;DHT22;36669;51.428;21.162;2023-04-29T06:43:07;10.50;99.90
44886;DHT22;36669;51.428;21.162;2023-04-29T06:45:34;10.60;99.90
44886;DHT22;36669;51.428;21.162;2023-04-29T06:48:00;10.80;99.90
44886;DHT22;36669;51.428;21.162;2023-04-29T06:50:27;10.90;99.90
44886;DHT22;36669;51.428;21.162;2023-04-29T06:52:54;10.80;99.90
44886;DHT22;36669;51.428;21.162;2023-04-29T06:55:21;10.90;99.90
44886;DHT22;36669;51.428;21.162;2023-04-29T06:57:47;11.10;99.90
44886;DHT22;36669;51.428;21.162;2023-04-29T07:00:14;11.20;99.90
44886;DHT22;36669;51.428;21.162;2023-04-29T07:02:42;11.20;99.90
44886;DHT22;36669;51.428;21.162;2023-04-29T07:05:09;11.30;99.90
44886;DHT22;36669;51.428;21.162;2023-04-29T07:07:36;11.40;99.90
44886;DHT22;36669;51.428;21.162;2023-04-29T07:10:03;11.60;99.90
44886;DHT22;36669;51.428;21.162;2023-04-29T07:12:30;11.70;99.90
44886;DHT22;36669;51.428;21.162;2023-04-29T07:14:57;11.80;99.90
44886;DHT22;36669;51.428;21.162;2023-04-29T07:17:25;11.80;99.90
44886;DHT22;36669;51.428;21.162;2023-04-29T07:19:54;12.00;99.90
44886;DHT22;36669;51.428;21.162;2023-04-29T07:22:22;12.20;99.90
44886;DHT22;36669;51.428;21.162;2023-04-29T07:24:51;12.30;99.90
44886;DHT22;36669;51.428;21.162;2023-04-29T07:27:27;12.40;99.90
44886;DHT22;36669;51.428;21.162;2023-04-29T07:29:53;12.40;99.90
44886;DHT22;36669;51.428;21.162;2023-04-29T07:32:21;12.30;99.90
44886;DHT22;36669;51.428;21.162;2023-04-29T07:34:47;12.40;99.90
44886;DHT22;36669;51.428;21.162;2023-04-29T07:37:14;12.60;99.90
44886;DHT22;36669;51.428;21.162;2023-04-29T07:39:41;12.80;99.90
44886;DHT22;36669;51.428;21.162;2023-04-29T07:42:08;12.90;99.90
44886;DHT22;36669;51.428;21.162;2023-04-29T07:44:35;13.00;99.90
44886;DHT22;36669;51.428;21.162;2023-04-29T07:47:02;13.10;99.90
44886;DHT22;36669;51.428;21.162;2023-04-29T07:49:29;13.20;99.90
44886;DHT22;36669;51.428;21.162;2023-04-29T07:51:56;13.30;99.90
44886;DHT22;36669;51.428;21.162;2023-04-29T07:54:21;13.40;99.90
44886;DHT22;36669;51.428;21.162;2023-04-29T07:56:49;13.40;99.90
44886;DHT22;36669;51.428;21.162;2023-04-29T07:59:16;13.50;99.90
44886;DHT22;36669;51.428;21.162;2023-04-29T08:01:43;13.40;99.90
44886;DHT22;36669;51.428;21.162;2023-04-29T08:04:09;13.40;99.90
44886;DHT22;36669;51.428;21.162;2023-04-29T08:06:35;13.50;99.90
44886;DHT22;36669;51.428;21.162;2023-04-29T08:09:01;13.60;99.90
44886;DHT22;36669;51.428;21.162;2023-04-29T08:11:27;13.50;99.90
44886;DHT22;36669;51.428;21.162;2023-04-29T08:13:54;13.60;99.90
44886;DHT22;36669;51.428;21.162;2023-04-29T08:16:23;13.40;99.90
44886;DHT22;36669;51.428;21.162;2023-04-29T08:18:52;13.50;99.90
44886;DHT22;36669;51.428;21.162;2023-04-29T08:21:18;13.50;99.90
44886;DHT22;36669;51.428;21.162;2023-04-29T08:23:44;13.50;99.90
44886;DHT22;36669;51.428;21.162;2023-04-29T08:26:11;13.60;99.90
44886;DHT22;36669;51.428;21.162;2023-04-29T08:28:38;13.80;99.90
44886;DHT22;36669;51.428;21.162;2023-04-29T08:31:06;13.90;99.90
44886;DHT22;36669;51.428;21.162;2023-04-29T08:33:33;13.90;99.90
44886;DHT22;36669;51.428;21.162;2023-04-29T08:36:00;14.10;99.90
44886;DHT22;36669;51.428;21.162;2023-04-29T08:38:29;14.30;99.90
44886;DHT22;36669;51.428;21.162;2023-04-29T08:40:57;14.40;99.90
44886;DHT22;36669;51.428;21.162;2023-04-29T08:43:23;14.40;99.90
44886;DHT22;36669;51.428;21.162;2023-04-29T08:45:50;14.60;99.90
44886;DHT22;36669;51.428;21.162;2023-04-29T08:48:17;14.80;99.90
44886;DHT22;36669;51.428;21.162;2023-04-29T08:50:44;14.90;99.90
44886;DHT22;36669;51.428;21.162;2023-04-29T08:53:12;15.00;99.80
44886;DHT22;36669;51.428;21.162;2023-04-29T08:55:44;15.00;99.80
44886;DHT22;36669;51.428;21.162;2023-04-29T08:58:14;15.20;99.90
44886;DHT22;36669;51.428;21.162;2023-04-29T09:00:41;15.30;98.20
44886;DHT22;36669;51.428;21.162;2023-04-29T09:03:21;15.10;97.10
44886;DHT22;36669;51.428;21.162;2023-04-29T09:05:54;14.90;98.10
44886;DHT22;36669;51.428;21.162;2023-04-29T09:08:23;15.20;98.50
44886;DHT22;36669;51.428;21.162;2023-04-29T09:10:50;15.30;98.50
44886;DHT22;36669;51.428;21.162;2023-04-29T09:13:24;15.50;97.70
44886;DHT22;36669;51.428;21.162;2023-04-29T09:15:53;15.80;97.10
44886;DHT22;36669;51.428;21.162;2023-04-29T09:21:17;16.10;95.30
44886;DHT22;36669;51.428;21.162;2023-04-29T09:23:43;16.20;94.20
44886;DHT22;36669;51.428;21.162;2023-04-29T09:26:11;16.10;94.70
44886;DHT22;36669;51.428;21.162;2023-04-29T09:28:37;16.20;94.90
44886;DHT22;36669;51.428;21.162;2023-04-29T09:31:06;16.40;95.20
44886;DHT22;36669;51.428;21.162;2023-04-29T09:33:47;16.40;94.60
44886;DHT22;36669;51.428;21.162;2023-04-29T09:36:30;16.30;94.50
44886;DHT22;36669;51.428;21.162;2023-04-29T09:39:01;16.10;93.70
44886;DHT22;36669;51.428;21.162;2023-04-29T09:41:28;16.30;94.60
44886;DHT22;36669;51.428;21.162;2023-04-29T09:44:07;16.40;94.10
44886;DHT22;36669;51.428;21.162;2023-04-29T09:46:33;16.90;94.30
44886;DHT22;36669;51.428;21.162;2023-04-29T09:49:04;17.00;91.30
44886;DHT22;36669;51.428;21.162;2023-04-29T09:51:53;17.20;89.40
44886;DHT22;36669;51.428;21.162;2023-04-29T09:54:21;17.40;90.60
44886;DHT22;36669;51.428;21.162;2023-04-29T09:56:48;17.70;90.00
44886;DHT22;36669;51.428;21.162;2023-04-29T09:59:14;17.50;87.70
44886;DHT22;36669;51.428;21.162;2023-04-29T10:01:41;17.60;85.80
44886;DHT22;36669;51.428;21.162;2023-04-29T10:04:08;17.50;85.90
44886;DHT22;36669;51.428;21.162;2023-04-29T10:06:37;17.70;86.80
44886;DHT22;36669;51.428;21.162;2023-04-29T10:09:04;18.00;85.60
44886;DHT22;36669;51.428;21.162;2023-04-29T10:11:33;18.10;81.30
44886;DHT22;36669;51.428;21.162;2023-04-29T10:13:59;18.10;79.80
44886;DHT22;36669;51.428;21.162;2023-04-29T10:16:28;18.20;79.70
44886;DHT22;36669;51.428;21.162;2023-04-29T10:18:55;18.30;82.40
44886;DHT22;36669;51.428;21.162;2023-04-29T10:21:27;18.80;80.00
44886;DHT22;36669;51.428;21.162;2023-04-29T10:23:57;19.20;79.60
44886;DHT22;36669;51.428;21.162;2023-04-29T10:26:27;19.20;76.30
44886;DHT22;36669;51.428;21.162;2023-04-29T10:28:57;19.40;75.90
44886;DHT22;36669;51.428;21.162;2023-04-29T10:31:26;19.30;74.80
44886;DHT22;36669;51.428;21.162;2023-04-29T10:33:56;19.00;75.80
44886;DHT22;36669;51.428;21.162;2023-04-29T10:36:23;19.00;75.50
44886;DHT22;36669;51.428;21.162;2023-04-29T10:39:02;18.80;76.20
44886;DHT22;36669;51.428;21.162;2023-04-29T10:41:33;19.00;75.80
44886;DHT22;36669;51.428;21.162;2023-04-29T10:44:00;19.10;75.40
44886;DHT22;36669;51.428;21.162;2023-04-29T10:46:30;19.20;73.90
44886;DHT22;36669;51.428;21.162;2023-04-29T10:48:59;19.30;73.70
44886;DHT22;36669;51.428;21.162;2023-04-29T10:51:31;19.10;72.60
44886;DHT22;36669;51.428;21.162;2023-04-29T10:54:17;19.30;74.40
44886;DHT22;36669;51.428;21.162;2023-04-29T10:56:48;19.10;73.90
44886;DHT22;36669;51.428;21.162;2023-04-29T10:59:19;18.80;73.50
44886;DHT22;36669;51.428;21.162;2023-04-29T11:01:47;18.50;72.70
44886;DHT22;36669;51.428;21.162;2023-04-29T11:04:15;18.50;72.60
44886;DHT22;36669;51.428;21.162;2023-04-29T11:06:53;18.00;73.20
44886;DHT22;36669;51.428;21.162;2023-04-29T11:14:24;18.60;74.60
44886;DHT22;36669;51.428;21.162;2023-04-29T11:16:51;18.70;74.00
44886;DHT22;36669;51.428;21.162;2023-04-29T11:19:18;19.30;72.30
44886;DHT22;36669;51.428;21.162;2023-04-29T11:21:46;19.70;71.20
44886;DHT22;36669;51.428;21.162;2023-04-29T11:24:12;19.80;71.60
44886;DHT22;36669;51.428;21.162;2023-04-29T11:26:40;20.10;71.20
44886;DHT22;36669;51.428;21.162;2023-04-29T11:29:12;20.00;69.00
44886;DHT22;36669;51.428;21.162;2023-04-29T11:31:38;19.80;70.20
44886;DHT22;36669;51.428;21.162;2023-04-29T11:34:03;20.00;69.20
44886;DHT22;36669;51.428;21.162;2023-04-29T11:36:33;20.20;69.70
44886;DHT22;36669;51.428;21.162;2023-04-29T11:39:01;20.30;68.40
44886;DHT22;36669;51.428;21.162;2023-04-29T11:41:28;20.50;69.00
44886;DHT22;36669;51.428;21.162;2023-04-29T11:43:54;20.90;66.60
44886;DHT22;36669;51.428;21.162;2023-04-29T11:46:22;21.20;64.90
44886;DHT22;36669;51.428;21.162;2023-04-29T11:48:49;20.50;64.60
44886;DHT22;36669;51.428;21.162;2023-04-29T11:51:15;21.10;64.00
44886;DHT22;36669;51.428;21.162;2023-04-29T11:53:43;20.90;63.20
44886;DHT22;36669;51.428;21.162;2023-04-29T11:56:10;20.20;63.90
44886;DHT22;36669;51.428;21.162;2023-04-29T11:58:37;20.30;65.30
44886;DHT22;36669;51.428;21.162;2023-04-29T12:01:04;20.40;64.50
44886;DHT22;36669;51.428;21.162;2023-04-29T12:03:30;20.10;65.00
44886;DHT22;36669;51.428;21.162;2023-04-29T12:05:56;20.30;65.70
44886;DHT22;36669;51.428;21.162;2023-04-29T12:08:23;20.10;64.20
44886;DHT22;36669;51.428;21.162;2023-04-29T12:10:50;19.70;64.40
44886;DHT22;36669;51.428;21.162;2023-04-29T12:13:18;19.30;64.20
44886;DHT22;36669;51.428;21.162;2023-04-29T12:15:46;19.00;65.80
44886;DHT22;36669;51.428;21.162;2023-04-29T12:18:16;18.80;66.20
44886;DHT22;36669;51.428;21.162;2023-04-29T12:20:44;18.70;66.20
44886;DHT22;36669;51.428;21.162;2023-04-29T12:23:19;18.60;67.80
44886;DHT22;36669;51.428;21.162;2023-04-29T12:25:51;18.70;67.60
44886;DHT22;36669;51.428;21.162;2023-04-29T12:28:18;18.60;69.30
44886;DHT22;36669;51.428;21.162;2023-04-29T12:30:45;18.40;69.60
44886;DHT22;36669;51.428;21.162;2023-04-29T12:33:19;18.60;69.70
44886;DHT22;36669;51.428;21.162;2023-04-29T12:35:47;18.50;69.70
44886;DHT22;36669;51.428;21.162;2023-04-29T12:38:32;18.50;70.40
44886;DHT22;36669;51.428;21.162;2023-04-29T12:41:00;18.60;70.50
44886;DHT22;36669;51.428;21.162;2023-04-29T12:43:47;18.80;71.30
44886;DHT22;36669;51.428;21.162;2023-04-29T12:46:15;18.80;71.00
44886;DHT22;36669;51.428;21.162;2023-04-29T12:48:42;19.20;71.30
44886;DHT22;36669;51.428;21.162;2023-04-29T12:51:11;19.50;70.50
44886;DHT22;36669;51.428;21.162;2023-04-29T12:53:38;19.90;69.60
44886;DHT22;36669;51.428;21.162;2023-04-29T12:56:05;20.20;68.60
44886;DHT22;36669;51.428;21.162;2023-04-29T12:58:31;20.70;68.40
44886;DHT22;36669;51.428;21.162;2023-04-29T13:01:00;20.90;66.20
44886;DHT22;36669;51.428;21.162;2023-04-29T13:03:27;21.20;65.10
44886;DHT22;36669;51.428;21.162;2023-04-29T13:05:53;21.10;62.90
44886;DHT22;36669;51.428;21.162;2023-04-29T13:08:19;21.60;59.50
44886;DHT22;36669;51.428;21.162;2023-04-29T13:10:46;22.10;59.30
44886;DHT22;36669;51.428;21.162;2023-04-29T13:13:12;22.60;59.10
44886;DHT22;36669;51.428;21.162;2023-04-29T13:15:39;22.50;57.00
44886;DHT22;36669;51.428;21.162;2023-04-29T13:18:05;22.50;56.70
44886;DHT22;36669;51.428;21.162;2023-04-29T13:20:32;22.20;57.70
44886;DHT22;36669;51.428;21.162;2023-04-29T13:22:59;21.90;58.00
44886;DHT22;36669;51.428;21.162;2023-04-29T13:25:25;21.80;58.00
44886;DHT22;36669;51.428;21.162;2023-04-29T13:27:52;21.70;58.70
44886;DHT22;36669;51.428;21.162;2023-04-29T13:30:17;21.60;58.60
44886;DHT22;36669;51.428;21.162;2023-04-29T13:32:43;21.60;59.40
44886;DHT22;36669;51.428;21.162;2023-04-29T13:35:08;21.80;59.60
44886;DHT22;36669;51.428;21.162;2023-04-29T13:37:36;22.00;59.90
44886;DHT22;36669;51.428;21.162;2023-04-29T13:40:03;22.20;61.90
44886;DHT22;36669;51.428;21.162;2023-04-29T13:42:30;22.10;60.40
44886;DHT22;36669;51.428;21.162;2023-04-29T13:44:56;21.70;62.30
44886;DHT22;36669;51.428;21.162;2023-04-29T13:47:21;21.90;61.10
44886;DHT22;36669;51.428;21.162;2023-04-29T13:49:49;21.70;61.20
44886;DHT22;36669;51.428;21.162;2023-04-29T13:52:14;21.40;62.20
44886;DHT22;36669;51.428;21.162;2023-04-29T13:54:40;21.60;63.10
44886;DHT22;36669;51.428;21.162;2023-04-29T13:57:07;21.50;63.30
44886;DHT22;36669;51.428;21.162;2023-04-29T13:59:34;21.40;63.40
44886;DHT22;36669;51.428;21.162;2023-04-29T14:02:02;21.20;64.40
44886;DHT22;36669;51.428;21.162;2023-04-29T14:04:29;21.20;64.20
44886;DHT22;36669;51.428;21.162;2023-04-29T14:06:56;21.50;63.30
44886;DHT22;36669;51.428;21.162;2023-04-29T14:09:22;21.80;62.20
44886;DHT22;36669;51.428;21.162;2023-04-29T14:11:48;22.30;61.20
44886;DHT22;36669;51.428;21.162;2023-04-29T14:14:14;24.50;59.00
44886;DHT22;36669;51.428;21.162;2023-04-29T14:16:42;24.10;58.60
44886;DHT22;36669;51.428;21.162;2023-04-29T14:19:09;23.70;58.30
44886;DHT22;36669;51.428;21.162;2023-04-29T14:21:34;23.90;59.00
44886;DHT22;36669;51.428;21.162;2023-04-29T14:24:01;23.50;57.40
44886;DHT22;36669;51.428;21.162;2023-04-29T14:26:29;22.80;58.40
44886;DHT22;36669;51.428;21.162;2023-04-29T14:28:55;22.30;58.60
44886;DHT22;36669;51.428;21.162;2023-04-29T14:31:23;22.20;59.30
44886;DHT22;36669;51.428;21.162;2023-04-29T14:33:50;22.20;59.50
44886;DHT22;36669;51.428;21.162;2023-04-29T14:36:15;21.70;59.60
44886;DHT22;36669;51.428;21.162;2023-04-29T14:38:42;21.50;61.90
44886;DHT22;36669;51.428;21.162;2023-04-29T14:41:08;20.80;62.10
44886;DHT22;36669;51.428;21.162;2023-04-29T14:43:35;21.10;62.70
44886;DHT22;36669;51.428;21.162;2023-04-29T14:46:02;21.90;61.30
44886;DHT22;36669;51.428;21.162;2023-04-29T14:48:29;23.30;58.00
44886;DHT22;36669;51.428;21.162;2023-04-29T14:50:55;23.90;56.60
44886;DHT22;36669;51.428;21.162;2023-04-29T14:53:22;24.60;55.70
44886;DHT22;36669;51.428;21.162;2023-04-29T14:55:51;25.10;54.40
44886;DHT22;36669;51.428;21.162;2023-04-29T14:58:18;24.70;53.60
44886;DHT22;36669;51.428;21.162;2023-04-29T15:00:44;23.70;54.50
44886;DHT22;36669;51.428;21.162;2023-04-29T15:03:09;23.50;55.40
44886;DHT22;36669;51.428;21.162;2023-04-29T15:05:36;22.90;56.50
44886;DHT22;36669;51.428;21.162;2023-04-29T15:08:02;22.50;56.90
44886;DHT22;36669;51.428;21.162;2023-04-29T15:10:28;22.20;57.40
44886;DHT22;36669;51.428;21.162;2023-04-29T15:12:54;21.80;57.70
44886;DHT22;36669;51.428;21.162;2023-04-29T15:15:20;21.70;58.90
44886;DHT22;36669;51.428;21.162;2023-04-29T15:17:47;21.30;59.20
44886;DHT22;36669;51.428;21.162;2023-04-29T15:20:13;20.80;61.00
44886;DHT22;36669;51.428;21.162;2023-04-29T15:22:38;20.70;61.10
44886;DHT22;36669;51.428;21.162;2023-04-29T15:25:04;20.40;62.90
44886;DHT22;36669;51.428;21.162;2023-04-29T15:27:34;21.50;61.00
44886;DHT22;36669;51.428;21.162;2023-04-29T15:30:00;21.50;59.10
44886;DHT22;36669;51.428;21.162;2023-04-29T15:32:26;21.20;59.60
44886;DHT22;36669;51.428;21.162;2023-04-29T15:35:01;20.80;60.60
44886;DHT22;36669;51.428;21.162;2023-04-29T15:37:27;20.70;61.90
44886;DHT22;36669;51.428;21.162;2023-04-29T15:39:53;20.40;62.90
44886;DHT22;36669;51.428;21.162;2023-04-29T15:42:20;19.90;63.50
44886;DHT22;36669;51.428;21.162;2023-04-29T15:44:47;19.70;64.20
44886;DHT22;36669;51.428;21.162;2023-04-29T15:47:13;19.70;65.30
44886;DHT22;36669;51.428;21.162;2023-04-29T15:49:41;19.40;65.70